Terminal Aerodrome Forecast
Issued by NWS

Home | Current Version | Previous Version | Text Only | Print | Product List | Glossary On
Versions: 1 2 3 4 5 6 7 8 9 10 11 12 13 14 15 16 17 18
000
FTAK31 PAFA 271131
TAFASC
TAF
PASC 271131Z 2712/2812 07012KT P6SM -SN BKN012
     FM271400 07015KT P6SM -SN OVC012
     FM281000 07017KT 4SM -SN OVC012=

USA.gov is the U.S. government's official web portal to all federal, state and local government web resources and services.